Aérodrome :
LOGIN :

S'inscrire | Disclaimer

   EN    FR    IT 

 










Légende :    VFR   VFR Marginal   IFR   IFR Intensif   IFR Très Intensif
Visi : 
Plafond : 
>= 8 km
>= 3000ft
5 à 8 km
1000 à 3000 ft
1500m à 5 km
500 à 1000 ft
800 à 1500m
200 à 500 ft
< 800m
< 200 ft
Symboles :   Orages  Brouillard  Fortes neiges  Fortes précipitations  Vent > 20 kt
SIGMETs :   Divers  Orages  Givrage  Turbulence  Onde Orograph.  Cendres Volcan.






- Altitude de l'aérodrome : 508 ft
- Code IATA : HRK


UKHH - Osnova

DERNIER METAR :
  • 191500Z 30002MPS 280V340 8000 OVC003 M04/M04 Q1031 R25/190079 BECMG 2100 BR

METARs EXPIRÉS :
  • 191430Z 29002MPS 260V330 7000 OVC003 M04/M04 Q1031 R25/190079 BECMG 2100 BR
  • 191400Z 27002MPS 8000 OVC003 M04/M04 Q1031 R25/190079 BECMG 2100 BR
  • 191330Z 30002MPS 270V350 9000 OVC003 M04/M04 Q1031 R25/190079 BECMG 2100 BR
  • 191300Z 28002MPS 230V320 7000 OVC003 M04/M04 Q1030 R25/190079 NOSIG
  • 191230Z 33002MPS 290V030 6000 OVC003 M04/M04 Q1030 R25/190079 NOSIG

TAF TAF UKHH
Valide du 19 à 12h jusqu'au 20 à 12h UTC


191109Z 1912/2012 28002MPS 2100 BR OVC004 TX00/2012Z TNM03/2006Z
TEMPO 1912/2006 0600 FZFG VV002
PROB40
TEMPO 1912/2006 -FZDZ
BECMG 2008/2010 30005MPS OVC007



MET'MAP, la Météo Aéronautique d'un coup d'oeil ! - Copyright ORBIFLY Décembre 2007 - Disclaimer

ORBIFLY MET'MAP TEAM :

Programmation & Développement : Alexandra Zaïnal
Sur une idée originale de : Baudouin d'Aumeries
Assistance à la programmation : Marc-Olivier Méhu
Soutien technique & logistique : Manuel Goepfert

Contact : metmap@orbifly.com




SOURCES & CREDITS :

   NOAA